Time;durP1;ratioP1;P1;durP2;ratioP2;P2;SDS_P1;SDS_P2;PMS_P1;PMS_P2;Temp;Humidity;BMP_temperature;BMP_pressure;BME280_temperature;BME280_humidity;BME280_pressure;Samples;Min_cycle;Max_cycle;Signal;HPM_P1;HPM_P2
2022/01/04 00:01:52;;;;;;;5.40;1.92;;;;;;;6.93;95.19;95955.31;4962506;28;20043;-64
2022/01/04 00:04:17;;;;;;;5.30;2.08;;;;;;;7.01;95.51;95951.59;4953730;28;20051;-64
2022/01/04 00:06:45;;;;;;;4.22;2.08;;;;;;;7.07;96.00;95960.25;4963247;28;20061;-65
2022/01/04 00:09:11;;;;;;;5.18;1.58;;;;;;;7.06;94.80;95947.81;4957864;28;20043;-66
2022/01/04 00:11:57;;;;;;;5.25;1.65;;;;;;;7.10;93.31;95939.69;4961650;28;20101;-66
2022/01/04 00:14:23;;;;;;;3.63;1.70;;;;;;;7.17;91.97;95939.81;4957607;28;20816;-65
2022/01/04 00:16:50;;;;;;;5.55;2.63;;;;;;;7.26;91.25;95926.75;4961976;28;20137;-65
2022/01/04 00:19:17;;;;;;;5.13;1.77;;;;;;;7.29;91.13;95915.09;4956787;28;20484;-65
2022/01/04 00:21:43;;;;;;;8.32;2.20;;;;;;;7.28;91.05;95906.16;4953784;28;20051;-65
2022/01/04 00:24:09;;;;;;;4.25;1.95;;;;;;;7.29;91.40;95906.91;4956469;28;20046;-66
2022/01/04 00:26:34;;;;;;;3.50;1.60;;;;;;;7.31;90.66;95899.19;4957128;28;20042;-66
2022/01/04 00:29:00;;;;;;;6.20;1.55;;;;;;;7.35;90.26;95902.75;4953576;28;20404;-65
2022/01/04 00:31:26;;;;;;;4.15;1.50;;;;;;;7.39;90.09;95883.75;4939000;28;20392;-64
2022/01/04 00:33:51;;;;;;;11.50;4.70;;;;;;;7.42;90.42;95886.53;4957901;28;20159;-66
2022/01/04 00:36:17;;;;;;;6.97;1.95;;;;;;;7.38;90.37;95888.41;4937062;28;20047;-65
2022/01/04 00:38:43;;;;;;;7.32;2.72;;;;;;;7.38;90.79;95899.31;4973302;28;20055;-64
2022/01/04 00:41:08;;;;;;;8.27;1.70;;;;;;;7.41;91.30;95895.06;4970746;28;20047;-66
2022/01/04 00:43:34;;;;;;;2.72;1.38;;;;;;;7.39;90.24;95889.97;4970834;28;20511;-67
2022/01/04 00:46:00;;;;;;;3.35;1.50;;;;;;;7.39;91.56;95892.69;4964662;28;20043;-65
2022/01/04 00:50:52;;;;;;;4.40;2.28;;;;;;;7.26;93.58;95870.31;4961066;28;20364;-65
2022/01/04 00:53:18;;;;;;;2.67;1.50;;;;;;;7.16;95.46;95856.53;4955869;28;20038;-66
2022/01/04 00:55:43;;;;;;;6.07;2.13;;;;;;;7.00;94.82;95837.59;4964098;28;20046;-66
2022/01/04 00:58:09;;;;;;;6.50;2.58;;;;;;;6.91;95.53;95835.13;4970506;28;20571;-66
2022/01/04 01:00:35;;;;;;;7.07;2.33;;;;;;;6.88;95.37;95823.03;4979146;28;20050;-65
2022/01/04 01:03:00;;;;;;;4.13;1.48;;;;;;;6.88;95.45;95825.75;4972891;28;20046;-65
2022/01/04 01:05:26;;;;;;;3.53;1.55;;;;;;;6.91;95.73;95826.94;4957381;28;20105;-63
2022/01/04 01:07:53;;;;;;;4.38;2.05;;;;;;;7.13;95.92;95822.66;4961267;28;20522;-64
2022/01/04 01:12:50;;;;;;;3.75;2.00;;;;;;;7.22;95.67;95820.47;4973495;28;20046;-66
2022/01/04 01:15:16;;;;;;;3.33;1.70;;;;;;;7.26;95.24;95806.91;4967757;28;20400;-64
2022/01/04 01:17:41;;;;;;;5.53;1.83;;;;;;;7.22;95.73;95816.94;4961649;28;20050;-64
2022/01/04 01:20:09;;;;;;;4.32;2.15;;;;;;;7.20;95.62;95817.31;4955463;28;20110;-65
2022/01/04 01:22:35;;;;;;;3.85;1.55;;;;;;;7.18;95.88;95814.16;4960733;28;20050;-64
2022/01/04 01:25:01;;;;;;;4.60;1.85;;;;;;;7.08;96.34;95817.53;4962809;28;20050;-66
2022/01/04 01:27:26;;;;;;;4.55;2.17;;;;;;;7.23;96.51;95810.34;4955985;28;20043;-65
2022/01/04 01:29:52;;;;;;;7.13;2.58;;;;;;;7.21;96.35;95815.38;4964112;28;20078;-63
2022/01/04 01:32:17;;;;;;;7.20;2.40;;;;;;;7.31;95.18;95797.59;4970296;28;20054;-66
2022/01/04 01:34:42;;;;;;;5.00;2.17;;;;;;;7.24;95.47;95801.03;4977655;28;20043;-65
2022/01/04 01:37:08;;;;;;;6.63;2.05;;;;;;;7.19;95.91;95787.72;4966006;28;20046;-64
2022/01/04 01:39:34;;;;;;;7.28;2.75;;;;;;;7.17;96.63;95798.19;4964783;28;20392;-65
2022/01/04 01:41:59;;;;;;;9.88;3.90;;;;;;;7.12;96.15;95795.78;4965218;28;20074;-66
2022/01/04 01:44:25;;;;;;;6.72;2.85;;;;;;;7.20;95.38;95792.00;4958251;28;20522;-64
2022/01/04 01:46:51;;;;;;;5.18;1.88;;;;;;;7.26;94.98;95766.81;4961892;28;20043;-66
2022/01/04 01:49:17;;;;;;;4.97;1.88;;;;;;;7.24;94.33;95760.97;4959359;28;20039;-67
2022/01/04 01:51:42;;;;;;;4.05;1.70;;;;;;;7.59;91.10;95759.84;4965557;28;20189;-65
2022/01/04 01:54:08;;;;;;;24.35;10.00;;;;;;;7.86;89.62;95743.44;4954993;28;20043;-63
2022/01/04 01:56:33;;;;;;;3.75;1.70;;;;;;;7.89;87.78;95742.69;4964090;28;20127;-66
2022/01/04 01:58:59;;;;;;;3.58;1.60;;;;;;;7.89;88.03;95750.88;4957953;28;20047;-64
2022/01/04 02:01:25;;;;;;;4.50;1.63;;;;;;;7.77;88.92;95749.16;4956328;28;20125;-63
2022/01/04 02:03:51;;;;;;;4.05;1.88;;;;;;;7.75;89.18;95734.34;4964302;28;20051;-65
2022/01/04 02:06:18;;;;;;;6.47;2.25;;;;;;;7.93;87.62;95729.09;4957810;28;20053;-66
2022/01/04 02:08:43;;;;;;;2.97;1.30;;;;;;;7.94;87.49;95731.47;4960182;28;20043;-65
2022/01/04 02:11:11;;;;;;;4.78;1.60;;;;;;;7.83;88.27;95728.63;4959721;28;20098;-66
2022/01/04 02:13:36;;;;;;;4.05;1.50;;;;;;;7.97;86.90;95719.00;4962281;28;20062;-66
2022/01/04 02:16:02;;;;;;;2.75;1.63;;;;;;;7.98;86.80;95721.38;4966085;28;20129;-64
2022/01/04 02:18:28;;;;;;;5.45;1.70;;;;;;;8.04;85.29;95719.09;4963325;28;20043;-64
2022/01/04 02:20:54;;;;;;;4.65;1.58;;;;;;;7.93;86.76;95718.19;4966229;28;20046;-66
2022/01/04 02:23:19;;;;;;;3.55;1.50;;;;;;;8.07;85.35;95712.09;4960818;28;20046;-66
2022/01/04 02:25:44;;;;;;;4.25;1.77;;;;;;;8.16;84.32;95707.16;4962476;28;20451;-65
2022/01/04 02:28:11;;;;;;;2.47;1.30;;;;;;;8.20;83.18;95703.28;4957900;28;20040;-64
2022/01/04 02:30:36;;;;;;;3.05;1.38;;;;;;;8.30;82.42;95695.56;4947100;28;20125;-64
2022/01/04 02:33:01;;;;;;;2.60;1.38;;;;;;;8.35;82.24;95687.03;4962184;28;20066;-62
2022/01/04 02:35:32;;;;;;;3.47;1.48;;;;;;;8.35;82.03;95685.09;4960387;28;20042;-65
2022/01/04 02:38:00;;;;;;;3.33;1.13;;;;;;;8.39;81.87;95666.81;4965151;28;20047;-65
2022/01/04 02:40:26;;;;;;;4.95;1.88;;;;;;;8.32;81.93;95660.50;4956647;28;20051;-65
2022/01/04 02:42:53;;;;;;;2.55;1.30;;;;;;;8.41;80.15;95648.13;4963089;28;20137;-65
2022/01/04 02:45:18;;;;;;;2.80;1.42;;;;;;;8.54;78.44;95642.41;4956597;28;20404;-66
2022/01/04 02:47:44;;;;;;;4.10;1.98;;;;;;;8.51;78.08;95645.88;4962712;28;20042;-64
2022/01/04 02:50:10;;;;;;;3.50;1.45;;;;;;;8.69;75.77;95626.91;4958759;28;20054;-65
2022/01/04 02:52:38;;;;;;;2.25;1.33;;;;;;;8.78;75.84;95639.03;4964302;28;20047;-64
2022/01/04 02:55:06;;;;;;;4.40;1.48;;;;;;;8.76;76.37;95624.22;4962269;28;20046;-62
2022/01/04 02:57:31;;;;;;;7.05;1.58;;;;;;;8.58;77.44;95626.81;4963292;28;20113;-64
2022/01/04 02:59:57;;;;;;;4.75;1.42;;;;;;;8.37;79.11;95617.31;4978465;28;20055;-64
2022/01/04 03:02:22;;;;;;;4.97;1.75;;;;;;;8.52;78.50;95612.75;4958176;28;20059;-64
2022/01/04 03:04:48;;;;;;;2.55;1.42;;;;;;;8.32;79.66;95614.94;4962170;28;20050;-64
2022/01/04 03:07:13;;;;;;;4.05;1.88;;;;;;;8.32;79.60;95598.56;4956633;28;20046;-65
2022/01/04 03:09:38;;;;;;;5.80;1.30;;;;;;;8.58;76.98;95583.94;4963515;28;20039;-63
2022/01/04 03:12:05;;;;;;;4.55;1.63;;;;;;;8.58;77.40;95581.19;4960686;28;20085;-62
2022/01/04 03:14:30;;;;;;;3.08;1.55;;;;;;;8.57;76.79;95585.13;4961962;28;20379;-65
2022/01/04 03:16:56;;;;;;;3.15;1.52;;;;;;;8.42;78.30;95583.44;4959569;28;20035;-67
2022/01/04 03:19:21;;;;;;;4.78;1.55;;;;;;;8.33;79.10;95591.16;4959387;28;20059;-63
2022/01/04 03:21:47;;;;;;;3.25;1.75;;;;;;;8.16;80.41;95593.38;4962083;28;20059;-65
2022/01/04 03:24:14;;;;;;;4.80;1.70;;;;;;;8.07;80.58;95584.72;4957423;28;20046;-64
2022/01/04 03:26:40;;;;;;;4.57;1.70;;;;;;;8.02;81.21;95576.88;4963175;28;20515;-65
2022/01/04 03:29:08;;;;;;;2.85;1.45;;;;;;;8.12;80.36;95559.84;4957992;28;20050;-64
2022/01/04 03:31:34;;;;;;;2.60;1.63;;;;;;;8.24;79.75;95554.06;4964315;28;20037;-64
2022/01/04 03:34:00;;;;;;;2.83;1.48;;;;;;;8.52;77.01;95550.00;4961855;28;20345;-65
2022/01/04 03:36:26;;;;;;;6.13;1.30;;;;;;;8.72;76.65;95533.34;4960018;28;20054;-64
2022/01/04 03:38:53;;;;;;;3.72;1.52;;;;;;;8.96;75.79;95529.91;4975536;28;20058;-65
2022/01/04 03:41:21;;;;;;;4.70;1.60;;;;;;;8.81;76.34;95544.69;4972852;28;20139;-63
2022/01/04 03:43:47;;;;;;;5.07;1.88;;;;;;;8.58;78.21;95544.94;4972593;28;20043;-65
2022/01/04 03:46:13;;;;;;;3.38;1.55;;;;;;;8.48;79.19;95521.91;4953569;28;20058;-63
2022/01/04 03:48:39;;;;;;;4.25;1.00;;;;;;;8.66;77.57;95508.34;4960249;28;20049;-64
2022/01/04 03:51:05;;;;;;;4.07;1.40;;;;;;;8.61;78.36;95506.75;4949762;28;20039;-62
2022/01/04 03:53:32;;;;;;;3.72;1.25;;;;;;;8.63;77.76;95500.91;4961735;28;20511;-64
2022/01/04 03:55:57;;;;;;;2.85;1.15;;;;;;;8.59;77.92;95491.94;4960365;28;20039;-64
2022/01/04 03:58:23;;;;;;;3.90;1.25;;;;;;;8.54;78.62;95479.44;4970216;28;20057;-64
2022/01/04 04:00:49;;;;;;;1.83;1.10;;;;;;;8.66;77.30;95493.91;4963081;28;20106;-64
2022/01/04 04:03:15;;;;;;;5.85;1.73;;;;;;;8.68;77.50;95492.38;4956521;28;20046;-64
2022/01/04 04:05:40;;;;;;;5.78;1.75;;;;;;;8.64;77.54;95485.31;4962029;28;20066;-63
2022/01/04 04:08:06;;;;;;;3.38;1.33;;;;;;;8.88;75.96;95475.66;4958682;28;20059;-63
2022/01/04 04:10:31;;;;;;;4.70;1.95;;;;;;;8.94;75.52;95471.38;4962188;28;20043;-63
2022/01/04 04:12:59;;;;;;;4.72;1.23;;;;;;;9.01;75.00;95463.22;4961170;28;20046;-65
2022/01/04 04:15:24;;;;;;;2.53;1.10;;;;;;;9.06;75.33;95462.84;4955657;28;20051;-66
2022/01/04 04:17:50;;;;;;;3.17;1.10;;;;;;;9.09;75.41;95470.28;4962177;28;20043;-65
2022/01/04 04:20:16;;;;;;;3.60;1.35;;;;;;;9.14;75.97;95469.88;4954215;28;20039;-65
2022/01/04 04:22:42;;;;;;;4.28;1.52;;;;;;;9.08;76.80;95467.94;4959708;28;20514;-66
2022/01/04 04:25:08;;;;;;;3.85;1.20;;;;;;;8.92;79.29;95471.00;4941699;28;20085;-62
2022/01/04 04:27:34;;;;;;;2.35;1.30;;;;;;;8.71;80.19;95479.88;4968212;28;20042;-65
2022/01/04 04:29:59;;;;;;;3.03;1.20;;;;;;;8.84;79.37;95462.00;4964053;28;20339;-66
2022/01/04 04:32:25;;;;;;;2.50;1.30;;;;;;;8.88;79.81;95462.78;4957315;28;20042;-65
2022/01/04 04:34:51;;;;;;;2.33;1.20;;;;;;;8.66;80.74;95464.69;4963226;28;20054;-65
2022/01/04 04:37:16;;;;;;;5.60;1.17;;;;;;;8.58;80.88;95471.25;4956419;28;20043;-65
2022/01/04 04:39:41;;;;;;;1.90;1.13;;;;;;;8.52;81.05;95459.94;4976291;28;20035;-66
2022/01/04 04:42:07;;;;;;;3.47;1.40;;;;;;;8.50;81.87;95462.28;4955517;28;20093;-65
2022/01/04 04:44:33;;;;;;;3.42;1.33;;;;;;;8.67;79.46;95465.44;4959836;28;20049;-64
2022/01/04 04:46:58;;;;;;;3.10;1.35;;;;;;;8.76;79.61;95465.88;4961552;28;20133;-63
2022/01/04 04:49:24;;;;;;;2.70;1.50;;;;;;;8.89;78.66;95466.31;4951525;28;20544;-64
2022/01/04 04:51:49;;;;;;;2.35;1.10;;;;;;;8.97;77.82;95463.22;4961651;28;20508;-63
2022/01/04 04:54:15;;;;;;;3.55;1.30;;;;;;;9.03;77.23;95460.09;4955418;28;20066;-64
2022/01/04 04:56:40;;;;;;;1.65;1.08;;;;;;;9.07;77.49;95458.94;4961761;28;20038;-66
2022/01/04 04:59:07;;;;;;;3.63;1.45;;;;;;;9.07;77.62;95452.69;4955309;28;20057;-63
2022/01/04 05:01:33;;;;;;;3.20;1.10;;;;;;;9.16;76.56;95445.69;4960927;28;20046;-65
2022/01/04 05:03:58;;;;;;;2.10;1.17;;;;;;;9.19;76.57;95457.78;4960554;28;20101;-65
2022/01/04 05:06:25;;;;;;;5.18;1.20;;;;;;;9.21;76.97;95455.44;4957276;28;20047;-64
2022/01/04 05:08:51;;;;;;;2.13;1.15;;;;;;;9.20;77.40;95451.16;4970124;28;20046;-65
2022/01/04 05:11:16;;;;;;;2.40;1.10;;;;;;;9.23;77.17;95446.88;4970300;28;20061;-62
2022/01/04 05:13:42;;;;;;;5.82;1.45;;;;;;;9.15;77.92;95441.41;4972597;28;20043;-64
2022/01/04 05:16:07;;;;;;;4.43;1.08;;;;;;;9.19;78.15;95444.13;4975948;28;20054;-64
2022/01/04 05:18:33;;;;;;;2.47;1.15;;;;;;;9.16;78.69;95442.97;4965925;28;20057;-65
2022/01/04 05:20:58;;;;;;;4.97;1.27;;;;;;;9.18;79.32;95442.56;4966946;28;20039;-64
2022/01/04 05:23:24;;;;;;;5.53;1.30;;;;;;;9.16;80.05;95440.25;4961107;28;20047;-63
2022/01/04 05:25:49;;;;;;;2.50;1.15;;;;;;;9.08;80.81;95433.19;4967847;28;20062;-65
2022/01/04 05:28:14;;;;;;;3.80;1.00;;;;;;;9.05;82.31;95433.94;4963297;28;20042;-65
2022/01/04 05:30:40;;;;;;;4.18;1.50;;;;;;;8.99;84.24;95425.38;4965257;28;20039;-65
2022/01/04 05:33:06;;;;;;;4.20;1.33;;;;;;;8.85;87.41;95427.28;4960318;28;20051;-65
2022/01/04 05:35:31;;;;;;;12.05;5.00;;;;;;;8.86;88.21;95418.72;4958924;28;20074;-64
2022/01/04 05:37:57;;;;;;;2.65;1.23;;;;;;;8.77;88.60;95434.69;4965483;28;20073;-65
2022/01/04 05:40:22;;;;;;;2.78;1.13;;;;;;;8.73;89.66;95442.88;4959553;28;20703;-65
2022/01/04 05:42:48;;;;;;;2.50;1.48;;;;;;;8.60;91.22;95442.41;4976480;28;20732;-64
2022/01/04 05:45:13;;;;;;;3.22;1.30;;;;;;;8.52;92.66;95443.56;4976540;28;20050;-65
2022/01/04 05:47:39;;;;;;;2.53;1.33;;;;;;;8.50;93.05;95434.19;4969419;28;20035;-65
2022/01/04 05:50:06;;;;;;;3.38;1.20;;;;;;;8.45;94.21;95429.13;4960324;28;20046;-62
2022/01/04 05:52:32;;;;;;;3.50;1.63;;;;;;;8.40;96.07;95427.50;4959412;28;20046;-65
2022/01/04 05:54:58;;;;;;;4.35;1.25;;;;;;;8.58;94.12;95439.28;4972478;28;20219;-65
2022/01/04 05:57:24;;;;;;;2.85;1.30;;;;;;;8.45;96.45;95438.06;4977462;28;20634;-65
2022/01/04 05:59:49;;;;;;;3.28;1.42;;;;;;;8.39;98.08;95439.56;4980631;28;20050;-66
2022/01/04 06:02:15;;;;;;;2.65;1.20;;;;;;;8.22;99.92;95436.38;4966607;28;20075;-63
2022/01/04 06:04:41;;;;;;;7.38;2.00;;;;;;;8.18;100.00;95438.31;4966295;28;20047;-64
2022/01/04 06:07:06;;;;;;;3.17;1.40;;;;;;;8.20;100.00;95430.50;4962802;28;20034;-65
2022/01/04 06:09:41;;;;;;;2.83;1.33;;;;;;;8.23;99.67;95428.97;4967381;28;20066;-65
2022/01/04 06:14:50;;;;;;;4.40;1.65;;;;;;;8.24;100.00;95436.00;4963679;28;20046;-66
2022/01/04 06:14:53;;;;;;;3.35;1.30;;;;;;;8.26;100.00;95435.59;4963762;28;20043;-66
2022/01/04 06:17:24;;;;;;;7.07;3.47;;;;;;;8.13;100.00;95427.75;4958730;28;20046;-66
2022/01/04 06:19:49;;;;;;;2.97;1.70;;;;;;;8.15;100.00;95405.56;4960545;28;20054;-66
2022/01/04 06:22:14;;;;;;;8.27;1.70;;;;;;;8.09;100.00;95401.63;4957285;28;20042;-65
2022/01/04 06:24:40;;;;;;;2.90;1.48;;;;;;;7.84;100.00;95400.31;4965287;28;20500;-65
2022/01/04 06:27:07;;;;;;;3.25;1.40;;;;;;;7.75;100.00;95399.88;4963024;28;20046;-64
2022/01/04 06:29:34;;;;;;;7.00;1.90;;;;;;;7.67;100.00;95398.28;4982270;28;20051;-66
2022/01/04 06:31:59;;;;;;;4.53;1.52;;;;;;;7.54;100.00;95397.78;4970546;28;20089;-65
2022/01/04 06:34:24;;;;;;;3.20;1.83;;;;;;;7.52;100.00;95396.59;4964172;28;20042;-65
2022/01/04 06:36:50;;;;;;;6.13;1.60;;;;;;;7.50;100.00;95396.97;4973147;28;20055;-66
2022/01/04 06:39:15;;;;;;;3.17;1.80;;;;;;;7.48;100.00;95393.84;4969012;28;20050;-66
2022/01/04 06:41:41;;;;;;;3.90;2.20;;;;;;;7.43;100.00;95383.31;4962159;28;20039;-65
2022/01/04 06:44:07;;;;;;;7.93;2.58;;;;;;;7.46;100.00;95382.56;4958495;28;20055;-64
2022/01/04 06:46:32;;;;;;;3.72;2.00;;;;;;;7.40;100.00;95375.88;4961103;28;20496;-65
2022/01/04 06:48:58;;;;;;;6.72;2.08;;;;;;;7.38;100.00;95381.72;4978799;28;20041;-68
2022/01/04 06:51:23;;;;;;;5.00;1.80;;;;;;;7.36;100.00;95366.91;4957687;28;20290;-68
2022/01/04 06:53:49;;;;;;;5.72;2.35;;;;;;;7.36;100.00;95364.97;4964358;28;20130;-66
2022/01/04 06:56:14;;;;;;;3.75;2.03;;;;;;;7.39;100.00;95352.53;4962103;28;20039;-66
2022/01/04 06:58:39;;;;;;;3.65;1.63;;;;;;;7.41;100.00;95342.81;4969538;28;20035;-66
2022/01/04 07:01:05;;;;;;;4.57;1.98;;;;;;;7.54;100.00;95324.22;4958699;28;20053;-63
2022/01/04 07:03:31;;;;;;;4.05;1.70;;;;;;;7.82;100.00;95318.16;4945308;28;20043;-66
2022/01/04 07:05:56;;;;;;;3.63;1.70;;;;;;;8.00;100.00;95322.91;4963625;28;20039;-66
2022/01/04 07:08:22;;;;;;;3.47;1.67;;;;;;;7.89;100.00;95322.09;4956441;28;20962;-66
2022/01/04 07:10:47;;;;;;;3.58;1.83;;;;;;;7.80;100.00;95311.53;4962913;28;20086;-66
2022/01/04 07:13:13;;;;;;;5.93;2.05;;;;;;;7.69;100.00;95313.41;4958809;28;20338;-66
2022/01/04 07:15:38;;;;;;;4.57;2.50;;;;;;;7.64;100.00;95314.56;4962898;28;20039;-66
2022/01/04 07:18:04;;;;;;;8.25;1.85;;;;;;;7.56;100.00;95312.94;4953505;28;20440;-61
2022/01/04 07:20:29;;;;;;;11.90;5.43;;;;;;;7.49;100.00;95302.81;4960626;28;20066;-67
2022/01/04 07:22:55;;;;;;;9.38;3.63;;;;;;;7.33;100.00;95303.09;4962518;28;20047;-65
2022/01/04 07:25:20;;;;;;;4.05;2.10;;;;;;;7.31;100.00;95305.41;4956806;28;20085;-64
2022/01/04 07:27:45;;;;;;;4.53;1.80;;;;;;;7.27;100.00;95293.69;4962698;28;20043;-66
2022/01/04 07:30:11;;;;;;;7.70;3.38;;;;;;;7.23;100.00;95288.22;4958393;28;20138;-66
2022/01/04 07:32:37;;;;;;;10.75;4.30;;;;;;;7.23;100.00;95285.50;4963012;28;20038;-66
2022/01/04 07:35:03;;;;;;;4.40;2.50;;;;;;;7.10;100.00;95275.31;4958509;28;20516;-63
2022/01/04 07:37:29;;;;;;;4.55;2.25;;;;;;;7.05;100.00;95281.88;4960171;28;20039;-65
2022/01/04 07:39:55;;;;;;;3.65;2.20;;;;;;;6.94;100.00;95275.59;4963392;28;20050;-65
2022/01/04 07:42:20;;;;;;;4.28;2.20;;;;;;;6.91;100.00;95282.56;4957298;28;20043;-65
2022/01/04 07:44:46;;;;;;;3.70;2.22;;;;;;;6.83;100.00;95273.56;4962145;28;20755;-65
2022/01/04 07:47:11;;;;;;;4.05;1.90;;;;;;;6.70;100.00;95275.78;4956161;28;20042;-64
2022/01/04 07:49:36;;;;;;;3.60;1.90;;;;;;;6.63;100.00;95272.25;4963104;28;20141;-65
2022/01/04 07:52:02;;;;;;;4.28;1.90;;;;;;;6.60;100.00;95270.25;4961329;28;20039;-63
2022/01/04 07:54:28;;;;;;;3.83;1.90;;;;;;;6.68;100.00;95266.44;4960238;28;20159;-65
2022/01/04 07:56:53;;;;;;;5.13;2.28;;;;;;;6.82;100.00;95269.25;4960743;28;20896;-65
2022/01/04 07:59:20;;;;;;;4.93;2.35;;;;;;;6.81;100.00;95262.28;4957312;28;20448;-65
2022/01/04 08:01:45;;;;;;;4.45;2.33;;;;;;;6.93;100.00;95274.78;4960748;28;20054;-64
2022/01/04 08:04:11;;;;;;;3.33;2.00;;;;;;;7.06;100.00;95269.84;4956110;28;20065;-65
2022/01/04 08:06:36;;;;;;;4.53;1.98;;;;;;;7.18;100.00;95269.53;4959468;28;20046;-66
2022/01/04 08:09:03;;;;;;;4.93;2.17;;;;;;;7.30;100.00;95271.16;4961693;28;20404;-63
2022/01/04 08:11:28;;;;;;;5.57;2.40;;;;;;;7.40;100.00;95259.56;4958810;28;20447;-64
2022/01/04 08:13:54;;;;;;;5.63;2.50;;;;;;;7.53;100.00;95268.19;4960194;28;20046;-65
2022/01/04 08:16:19;;;;;;;3.45;2.10;;;;;;;7.63;100.00;95262.00;4956206;28;20038;-66
2022/01/04 08:18:45;;;;;;;20.17;15.63;;;;;;;7.41;100.00;95249.44;4956654;28;20496;-65
2022/01/04 08:21:10;;;;;;;11.25;7.35;;;;;;;7.43;100.00;95256.06;4955285;28;20054;-64
2022/01/04 08:23:36;;;;;;;5.80;3.40;;;;;;;7.55;100.00;95246.78;4962318;28;20106;-65
2022/01/04 08:26:02;;;;;;;7.50;4.07;;;;;;;7.59;100.00;95242.13;4959936;28;20046;-62
2022/01/04 08:28:28;;;;;;;6.95;3.50;;;;;;;7.68;100.00;95246.44;4933652;28;20566;-66
2022/01/04 08:30:53;;;;;;;7.13;3.35;;;;;;;7.75;100.00;95230.13;4960640;28;20046;-66
2022/01/04 08:33:19;;;;;;;6.05;3.60;;;;;;;7.83;100.00;95237.16;4957001;28;20042;-65
2022/01/04 08:35:44;;;;;;;7.63;3.28;;;;;;;7.91;100.00;95248.88;4961905;28;20042;-66
2022/01/04 08:38:10;;;;;;;17.67;8.20;;;;;;;7.95;100.00;95236.03;4957581;28;20042;-65
2022/01/04 08:40:36;;;;;;;8.27;3.88;;;;;;;7.94;100.00;95234.47;4960925;28;20070;-66
2022/01/04 08:43:05;;;;;;;14.75;7.85;;;;;;;7.83;100.00;95237.94;4960204;28;20047;-63
2022/01/04 08:45:31;;;;;;;9.50;3.95;;;;;;;7.93;100.00;95217.31;4942965;28;20047;-64
2022/01/04 08:47:57;;;;;;;37.35;17.75;;;;;;;8.02;100.00;95231.38;4961924;28;20047;-66
2022/01/04 08:50:23;;;;;;;238.88;113.40;;;;;;;8.06;100.00;95223.19;4954634;28;20587;-65
2022/01/04 08:52:54;;;;;;;19.40;7.82;;;;;;;8.09;100.00;95227.13;4960723;28;20070;-65
2022/01/04 08:55:20;;;;;;;8.65;5.13;;;;;;;8.17;100.00;95213.09;4953357;28;20057;-63
2022/01/04 08:57:46;;;;;;;6.22;2.53;;;;;;;8.34;100.00;95227.94;4961797;28;20111;-65
2022/01/04 09:00:12;;;;;;;6.97;2.25;;;;;;;8.49;100.00;95214.34;4936837;28;20447;-64
2022/01/04 09:02:38;;;;;;;4.32;3.10;;;;;;;8.42;100.00;95210.41;4959516;28;20138;-64
2022/01/04 09:05:05;;;;;;;4.97;3.08;;;;;;;8.56;100.00;95215.09;4958501;28;20043;-63
2022/01/04 09:07:31;;;;;;;5.00;1.80;;;;;;;8.58;100.00;95214.72;4954542;28;20511;-65
2022/01/04 09:09:56;;;;;;;5.40;1.75;;;;;;;8.65;100.00;95203.03;4961937;28;20058;-66
2022/01/04 09:12:25;;;;;;;2.70;1.50;;;;;;;8.69;100.00;95215.50;4961126;28;20054;-64
2022/01/04 09:14:57;;;;;;;3.53;1.70;;;;;;;8.81;100.00;95211.59;4969499;28;20113;-65
2022/01/04 09:20:11;;;;;;;2.00;1.25;;;;;;;8.94;100.00;95198.31;4957927;28;20074;-65
2022/01/04 09:22:37;;;;;;;3.28;1.73;;;;;;;8.99;100.00;95190.50;4961343;28;20043;-64
2022/01/04 09:25:04;;;;;;;2.40;1.30;;;;;;;9.02;100.00;95194.41;4959433;28;20260;-63
2022/01/04 09:27:30;;;;;;;3.10;1.67;;;;;;;9.10;100.00;95181.53;4957629;28;20049;-65
2022/01/04 09:29:56;;;;;;;5.95;1.48;;;;;;;9.11;100.00;95188.53;4965948;28;20039;-63
2022/01/04 09:32:22;;;;;;;3.20;1.35;;;;;;;9.18;100.00;95189.31;4963368;28;20054;-65
2022/01/04 09:34:47;;;;;;;4.45;1.20;;;;;;;9.25;100.00;95188.50;4962259;28;20035;-66
2022/01/04 09:37:13;;;;;;;2.45;1.45;;;;;;;9.29;100.00;95180.28;4954631;28;20447;-66
2022/01/04 09:39:39;;;;;;;3.17;1.30;;;;;;;9.29;100.00;95180.28;4955860;28;20075;-66
2022/01/04 09:42:05;;;;;;;2.88;1.65;;;;;;;9.34;100.00;95171.69;4981392;28;20125;-63
2022/01/04 09:44:31;;;;;;;2.25;1.00;;;;;;;9.34;100.00;95174.41;4965693;28;20051;-66
2022/01/04 09:46:58;;;;;;;5.68;1.30;;;;;;;9.37;100.00;95177.13;4964789;28;20035;-65
2022/01/04 09:49:24;;;;;;;2.40;1.15;;;;;;;9.41;100.00;95179.84;4959951;28;20034;-66
2022/01/04 09:51:50;;;;;;;1.98;1.20;;;;;;;9.44;100.00;95170.88;4957790;28;20082;-65
2022/01/04 09:54:22;;;;;;;1.77;1.30;;;;;;;9.52;100.00;95166.91;4957092;28;20042;-65
2022/01/04 09:56:50;;;;;;;4.97;1.60;;;;;;;9.58;100.00;95153.66;4966256;28;20051;-66
2022/01/04 09:59:16;;;;;;;9.18;4.68;;;;;;;9.61;100.00;95155.56;4961117;28;20062;-65
2022/01/04 10:01:45;;;;;;;3.97;1.77;;;;;;;9.68;100.00;95149.28;4965689;28;20158;-64
2022/01/04 10:04:12;;;;;;;3.97;1.20;;;;;;;9.77;100.00;95147.66;4957384;28;20075;-65
2022/01/04 10:06:39;;;;;;;2.13;1.10;;;;;;;9.89;100.00;95143.72;4962194;28;20046;-65
2022/01/04 10:09:10;;;;;;;2.75;1.10;;;;;;;9.96;100.00;95134.69;4956750;28;20053;-63
2022/01/04 10:11:42;;;;;;;3.22;1.30;;;;;;;10.02;100.00;95138.53;4958905;28;20026;-66
2022/01/04 10:14:24;;;;;;;4.90;1.25;;;;;;;10.05;100.00;95142.44;4976639;28;20062;-64
2022/01/04 10:16:57;;;;;;;2.33;1.30;;;;;;;10.07;100.00;95140.84;4964977;28;20479;-66
2022/01/04 10:19:34;;;;;;;3.45;1.45;;;;;;;10.19;100.00;95128.66;4958985;28;20563;-64
2022/01/04 10:22:12;;;;;;;2.25;1.00;;;;;;;10.09;100.00;95130.28;4966940;28;20045;-65
2022/01/04 10:24:38;;;;;;;3.22;1.38;;;;;;;10.08;100.00;95136.16;4949068;28;20118;-64
2022/01/04 10:27:36;;;;;;;5.22;1.40;;;;;;;10.20;99.69;95135.69;4956106;28;20035;-62
2022/01/04 10:30:33;;;;;;;4.57;1.48;;;;;;;10.16;100.00;95131.44;4944824;28;20039;-63
2022/01/04 10:33:04;;;;;;;4.20;1.23;;;;;;;10.19;100.00;95122.41;4945334;28;20089;-65
2022/01/04 10:35:33;;;;;;;2.53;1.20;;;;;;;10.20;99.53;95122.00;4961632;28;20073;-64
2022/01/04 10:38:09;;;;;;;3.67;1.48;;;;;;;10.22;99.49;95118.88;4963780;28;20043;-64
2022/01/04 10:40:36;;;;;;;3.28;1.10;;;;;;;10.26;99.04;95111.41;4961345;28;20130;-64
2022/01/04 10:43:11;;;;;;;2.60;1.30;;;;;;;10.30;98.74;95101.22;4962082;28;20046;-63
2022/01/04 10:45:38;;;;;;;2.00;1.30;;;;;;;10.37;99.43;95097.66;4955558;28;20042;-64
2022/01/04 10:48:11;;;;;;;2.33;1.23;;;;;;;10.33;98.71;95090.28;4958479;28;20138;-62
2022/01/04 10:50:37;;;;;;;2.72;1.35;;;;;;;10.38;97.85;95080.84;4959295;28;20039;-65
2022/01/04 10:53:04;;;;;;;2.75;1.20;;;;;;;10.49;97.15;95092.47;4961465;28;20039;-63
2022/01/04 10:55:34;;;;;;;3.47;1.42;;;;;;;10.58;97.14;95097.47;4963095;28;20086;-66
2022/01/04 10:58:01;;;;;;;2.40;1.30;;;;;;;10.70;96.41;95082.50;4959347;28;20400;-66
2022/01/04 11:00:28;;;;;;;4.38;1.40;;;;;;;10.83;94.38;95078.06;4957926;28;20065;-66
2022/01/04 11:02:54;;;;;;;2.67;1.20;;;;;;;10.92;94.18;95074.06;4961994;28;20471;-67
2022/01/04 11:05:21;;;;;;;3.42;1.38;;;;;;;11.11;93.55;95057.00;4953342;28;20512;-65
2022/01/04 11:07:56;;;;;;;2.88;1.08;;;;;;;11.12;93.31;95039.38;4961830;28;20097;-67
2022/01/04 11:10:21;;;;;;;2.88;1.30;;;;;;;11.20;92.81;95040.84;4957781;28;20046;-67
2022/01/04 11:12:48;;;;;;;3.47;1.20;;;;;;;11.34;91.83;95028.91;4963881;28;20054;-67
2022/01/04 11:15:14;;;;;;;1.55;1.10;;;;;;;11.27;92.04;95032.53;4958869;28;20050;-67
2022/01/04 11:17:40;;;;;;;2.35;1.30;;;;;;;11.45;92.57;95023.28;4962316;28;20138;-67
2022/01/04 11:20:06;;;;;;;2.42;1.30;;;;;;;11.79;90.11;95020.44;4958909;28;20567;-65
2022/01/04 11:22:33;;;;;;;2.03;1.02;;;;;;;12.11;87.11;95021.16;4977947;28;20043;-65
2022/01/04 11:25:02;;;;;;;2.03;1.20;;;;;;;12.34;86.09;95007.41;4963690;28;20039;-66
2022/01/04 11:27:31;;;;;;;4.07;1.38;;;;;;;12.38;85.72;95010.88;4958436;28;20042;-67
2022/01/04 11:30:00;;;;;;;3.33;1.20;;;;;;;12.30;86.24;95009.44;4963336;28;20056;-66
2022/01/04 11:32:28;;;;;;;2.33;1.00;;;;;;;12.10;86.96;94998.44;4956896;28;20046;-67
2022/01/04 11:35:02;;;;;;;2.47;0.90;;;;;;;11.88;87.65;94992.47;4963104;28;20067;-66
2022/01/04 11:37:28;;;;;;;2.38;1.38;;;;;;;12.03;88.59;94984.81;4958247;28;20043;-66
2022/01/04 11:39:53;;;;;;;2.13;1.10;;;;;;;12.37;85.72;94973.63;4963238;28;20419;-66
2022/01/04 11:42:31;;;;;;;2.17;1.40;;;;;;;12.40;85.46;94966.53;4956862;28;20045;-67